createdAt,value
2023-05-28T00:00:58.219Z,95029.81
2023-05-28T00:03:27.524Z,94981.84
2023-05-28T00:05:56.198Z,95031.78
2023-05-28T00:08:25.046Z,95039.09
2023-05-28T00:11:00.807Z,95034.25
2023-05-28T00:13:31.906Z,95036.09
2023-05-28T00:16:00.299Z,95031.47
2023-05-28T00:18:29.821Z,95029.75
2023-05-28T00:20:58.477Z,95007.31
2023-05-28T00:23:27.162Z,95016.16
2023-05-28T00:25:55.733Z,95022.97
2023-05-28T00:28:24.141Z,95028.97
2023-05-28T00:30:53.836Z,95021.16
2023-05-28T00:33:22.168Z,95023.53
2023-05-28T00:35:51.235Z,95016.44
2023-05-28T00:38:19.488Z,95001.22
2023-05-28T00:40:47.826Z,95004.38
2023-05-28T00:43:16.955Z,94997.72
2023-05-28T00:45:45.513Z,95000.88
2023-05-28T00:48:15.346Z,95010.16
2023-05-28T00:50:45.380Z,94993.53
2023-05-28T00:53:15.245Z,94993.94
2023-05-28T00:55:43.728Z,95000.75
2023-05-28T00:58:12.565Z,94995.34
2023-05-28T01:00:44.274Z,94991.38
2023-05-28T01:03:12.550Z,94993.66
2023-05-28T01:05:43.071Z,94984.66
2023-05-28T01:08:11.720Z,94977.69
2023-05-28T01:10:40.357Z,94987.44
2023-05-28T01:13:09.979Z,94972.50
2023-05-28T01:15:38.627Z,94966.63
2023-05-28T01:18:07.690Z,94977.75
2023-05-28T01:20:37.146Z,94977.41
2023-05-28T01:23:09.249Z,94972.81
2023-05-28T01:25:40.008Z,94968.91
2023-05-28T01:28:14.710Z,94963.03
2023-05-28T01:30:44.904Z,94972.44
2023-05-28T01:33:13.587Z,94962.81
2023-05-28T01:35:42.258Z,94958.38
2023-05-28T01:38:12.717Z,94949.81
2023-05-28T01:40:46.561Z,94948.03
2023-05-28T01:43:15.818Z,94956.44
2023-05-28T01:45:44.899Z,94964.28
2023-05-28T01:48:13.765Z,94963.06
2023-05-28T01:50:42.142Z,94965.28
2023-05-28T01:53:10.556Z,94965.03
2023-05-28T01:55:38.797Z,94965.66
2023-05-28T01:58:09.665Z,94954.03
2023-05-28T02:00:44.995Z,94969.75
2023-05-28T02:03:13.340Z,94967.06
2023-05-28T02:05:41.657Z,94972.91
2023-05-28T02:08:10.333Z,94970.69
2023-05-28T02:10:38.625Z,94975.94
2023-05-28T02:13:08.271Z,94978.75
2023-05-28T02:15:36.682Z,94970.06
2023-05-28T02:18:05.272Z,94978.13
2023-05-28T02:20:33.649Z,94980.88
2023-05-28T02:23:02.038Z,94972.66
2023-05-28T02:25:30.333Z,94982.06
2023-05-28T02:27:59.486Z,94983.63
2023-05-28T02:30:29.250Z,94983.84
2023-05-28T02:32:57.897Z,94987.53
2023-05-28T02:35:26.239Z,94978.22
2023-05-28T02:37:54.523Z,94977.97
2023-05-28T02:40:22.921Z,94967.50
2023-05-28T02:42:51.341Z,94968.13
2023-05-28T02:45:19.620Z,94971.75
2023-05-28T02:47:49.398Z,94974.91
2023-05-28T02:50:17.727Z,94990.06
2023-05-28T02:52:45.998Z,94990.16
2023-05-28T02:55:14.227Z,94983.81
2023-05-28T02:57:43.595Z,94985.28
2023-05-28T03:00:13.612Z,94986.81
2023-05-28T03:02:41.979Z,94997.84
2023-05-28T03:05:11.773Z,94980.34
2023-05-28T03:07:40.230Z,94980.72
2023-05-28T03:10:09.566Z,94979.34
2023-05-28T03:12:37.903Z,94966.59
2023-05-28T03:15:06.850Z,94976.81
2023-05-28T03:17:35.136Z,94971.47
2023-05-28T03:20:04.060Z,94974.16
2023-05-28T03:22:33.760Z,94982.19
2023-05-28T03:25:02.165Z,94964.88
2023-05-28T03:27:30.839Z,94961.22
2023-05-28T03:29:59.229Z,94957.16
2023-05-28T03:32:27.655Z,94961.22
2023-05-28T03:34:55.898Z,94960.94
2023-05-28T03:37:24.200Z,94955.19
2023-05-28T03:39:53.864Z,94952.34
2023-05-28T03:42:22.218Z,94954.72
2023-05-28T03:44:50.460Z,94959.75
2023-05-28T03:47:18.798Z,94958.78
2023-05-28T03:49:47.186Z,94953.59
2023-05-28T03:52:15.568Z,94954.03
2023-05-28T03:54:43.925Z,94951.59
2023-05-28T03:57:13.583Z,94960.03
2023-05-28T03:59:41.939Z,94963.38
2023-05-28T04:02:10.475Z,94956.78
2023-05-28T04:04:38.783Z,94954.28
2023-05-28T04:07:08.424Z,94951.94
2023-05-28T04:09:36.751Z,94959.59
2023-05-28T04:12:05.355Z,94951.19
2023-05-28T04:14:35.042Z,94963.78
2023-05-28T04:17:04.458Z,94939.34
2023-05-28T04:19:32.782Z,94949.72
2023-05-28T04:22:01.022Z,94956.78
2023-05-28T04:24:29.358Z,94956.34
2023-05-28T04:26:58.300Z,94954.94
2023-05-28T04:29:30.171Z,94948.50
2023-05-28T04:32:00.035Z,94946.47
2023-05-28T04:34:28.709Z,94935.69
2023-05-28T04:36:59.399Z,94945.88
2023-05-28T04:39:27.731Z,94940.81
2023-05-28T04:41:56.008Z,94934.88
2023-05-28T04:44:27.259Z,94940.31
2023-05-28T04:46:55.819Z,94944.06
2023-05-28T04:49:25.542Z,94946.78
2023-05-28T04:51:54.110Z,94949.69
2023-05-28T04:54:22.376Z,94950.75
2023-05-28T04:56:50.690Z,94946.78
2023-05-28T04:59:19.578Z,94951.84
2023-05-28T05:01:47.911Z,94935.03
2023-05-28T05:04:16.323Z,94955.41
2023-05-28T05:06:46.141Z,94940.56
2023-05-28T05:09:14.411Z,94959.50
2023-05-28T05:11:42.709Z,94946.25
2023-05-28T05:14:11.725Z,94960.16
2023-05-28T05:16:40.177Z,94946.34
2023-05-28T05:19:08.678Z,94950.72
2023-05-28T05:21:37.077Z,94952.91
2023-05-28T05:24:07.271Z,94945.72
2023-05-28T05:26:35.543Z,94939.50
2023-05-28T05:29:03.847Z,94942.78
2023-05-28T05:31:32.857Z,94942.44
2023-05-28T05:34:01.268Z,94944.25
2023-05-28T05:36:29.862Z,94942.34
2023-05-28T05:38:58.164Z,94941.78
2023-05-28T05:41:27.873Z,94946.47
2023-05-28T05:43:56.166Z,94953.69
2023-05-28T05:46:24.468Z,94947.09
2023-05-28T05:48:52.818Z,94959.38
2023-05-28T05:51:21.250Z,94960.75
2023-05-28T05:53:49.528Z,94956.66
2023-05-28T05:56:17.836Z,94952.19
2023-05-28T05:58:47.522Z,94956.09
2023-05-28T06:01:18.700Z,94955.13
2023-05-28T06:03:47.038Z,94956.84
2023-05-28T06:06:15.559Z,94968.28
2023-05-28T06:08:43.865Z,94964.88
2023-05-28T06:11:12.260Z,94967.03
2023-05-28T06:13:40.890Z,94965.09
2023-05-28T06:16:12.193Z,94978.22
2023-05-28T06:18:41.192Z,94980.66
2023-05-28T06:21:09.902Z,94978.16
2023-05-28T06:23:38.608Z,94990.13
2023-05-28T06:26:06.924Z,94987.72
2023-05-28T06:28:35.144Z,94990.41
2023-05-28T06:31:04.340Z,94997.41
2023-05-28T06:33:33.973Z,94993.31
2023-05-28T06:36:02.754Z,94998.84
2023-05-28T06:38:30.989Z,94999.00
2023-05-28T06:40:59.171Z,94995.63
2023-05-28T06:43:27.420Z,94995.56
2023-05-28T06:45:56.192Z,94989.34
2023-05-28T06:48:24.461Z,95006.34
2023-05-28T06:50:54.104Z,94999.59
2023-05-28T06:53:22.530Z,94989.44
2023-05-28T06:55:50.903Z,94995.25
2023-05-28T06:58:19.304Z,94971.81
2023-05-28T07:00:47.560Z,94994.25
2023-05-28T07:03:15.786Z,94985.88
2023-05-28T07:05:44.123Z,94977.91
2023-05-28T07:08:13.803Z,94953.19
2023-05-28T07:10:41.999Z,94982.00
2023-05-28T07:13:10.340Z,94977.44
2023-05-28T07:15:40.336Z,94975.38
2023-05-28T07:18:08.756Z,94980.94
2023-05-28T07:20:37.076Z,94983.31
2023-05-28T07:23:05.867Z,94978.84
2023-05-28T07:25:35.627Z,94978.41
2023-05-28T07:28:03.899Z,94977.03
2023-05-28T07:30:32.087Z,94963.56
2023-05-28T07:33:00.381Z,94980.88
2023-05-28T07:35:28.696Z,94965.16
2023-05-28T07:37:57.075Z,94912.00
2023-05-28T07:40:25.386Z,94973.97
2023-05-28T07:42:54.998Z,94962.41
2023-05-28T07:45:23.372Z,94956.50
2023-05-28T07:47:51.621Z,94963.19
2023-05-28T07:50:19.856Z,94959.66
2023-05-28T07:52:48.553Z,94953.09
2023-05-28T07:55:16.925Z,94951.97
2023-05-28T07:57:45.146Z,94946.25
2023-05-28T08:00:17.368Z,94949.41
2023-05-28T08:02:47.558Z,94941.78
2023-05-28T08:05:19.559Z,94947.63
2023-05-28T08:07:47.804Z,94949.16
2023-05-28T08:10:16.062Z,94946.84
2023-05-28T08:12:44.402Z,94944.88
2023-05-28T08:15:14.272Z,94939.63
2023-05-28T08:17:42.478Z,94942.00
2023-05-28T08:20:13.050Z,94906.53
2023-05-28T08:22:41.737Z,94959.41
2023-05-28T08:25:10.697Z,94952.94
2023-05-28T08:27:38.871Z,94945.50
2023-05-28T08:30:09.388Z,94940.03
2023-05-28T08:32:39.108Z,94942.16
2023-05-28T08:35:07.938Z,94935.28
2023-05-28T08:37:36.126Z,94929.84
2023-05-28T08:40:08.949Z,94930.78
2023-05-28T08:42:37.314Z,94921.09
2023-05-28T08:45:06.453Z,94933.13
2023-05-28T08:47:35.368Z,94929.88
2023-05-28T08:50:08.177Z,94918.81
2023-05-28T08:52:36.960Z,94925.66
2023-05-28T08:55:05.668Z,94916.41
2023-05-28T08:57:34.262Z,94920.84
2023-05-28T09:00:08.193Z,94923.84
2023-05-28T09:02:37.214Z,94920.94
2023-05-28T09:05:08.071Z,94930.25
2023-05-28T09:07:54.612Z,94930.16
2023-05-28T09:10:24.630Z,94941.44
2023-05-28T09:13:00.411Z,94947.72
2023-05-28T09:15:28.701Z,94947.16
2023-05-28T09:17:59.433Z,94942.28
2023-05-28T09:20:29.727Z,94943.59
2023-05-28T09:23:02.337Z,94949.56
2023-05-28T09:25:34.144Z,94946.22
2023-05-28T09:28:02.952Z,94934.75
2023-05-28T09:30:31.479Z,94933.66
2023-05-28T09:33:03.949Z,94930.72
2023-05-28T09:35:34.725Z,94933.53
2023-05-28T09:38:05.114Z,94857.28
2023-05-28T09:40:33.502Z,94928.13
2023-05-28T09:43:06.788Z,94933.38
2023-05-28T09:45:35.584Z,94931.47
2023-05-28T09:48:04.275Z,94925.63
2023-05-28T09:50:34.199Z,94919.22
2023-05-28T09:53:05.247Z,94922.31
2023-05-28T09:55:34.802Z,94920.88
2023-05-28T09:58:05.270Z,94898.91
2023-05-28T10:00:35.795Z,94921.94
2023-05-28T10:03:15.217Z,94931.41
2023-05-28T10:05:46.963Z,94934.78
2023-05-28T10:08:18.472Z,94929.44
2023-05-28T10:10:51.975Z,94932.03
2023-05-28T10:13:20.360Z,94947.63
2023-05-28T10:15:49.207Z,94945.69
2023-05-28T10:18:18.044Z,94949.38
2023-05-28T10:20:48.986Z,94930.38
2023-05-28T10:23:18.500Z,94941.22
2023-05-28T10:25:47.106Z,94925.34
2023-05-28T10:28:17.594Z,94900.88
2023-05-28T10:30:46.060Z,94933.75
2023-05-28T10:33:18.281Z,94925.31
2023-05-28T10:35:56.367Z,94929.16
2023-05-28T10:38:25.727Z,94920.16
2023-05-28T10:41:01.743Z,94930.47
2023-05-28T10:43:43.969Z,94918.44
2023-05-28T10:46:12.854Z,94918.31
2023-05-28T10:48:42.527Z,94882.72
2023-05-28T10:51:13.581Z,94929.84
2023-05-28T10:53:41.781Z,94934.97
2023-05-28T10:56:10.209Z,94937.75
2023-05-28T10:58:39.588Z,94946.56
2023-05-28T11:01:21.010Z,94944.69
2023-05-28T11:03:55.361Z,94946.38
2023-05-28T11:06:28.019Z,94948.50
2023-05-28T11:08:59.530Z,94943.56
2023-05-28T11:11:28.936Z,94941.97
2023-05-28T11:13:57.287Z,94944.38
2023-05-28T11:16:25.695Z,94944.66
2023-05-28T11:19:03.931Z,94947.13
2023-05-28T11:21:34.624Z,94949.50
2023-05-28T11:24:04.009Z,94953.91
2023-05-28T11:26:32.943Z,94952.06
2023-05-28T11:29:02.227Z,94949.38
2023-05-28T11:31:31.956Z,94938.59
2023-05-28T11:34:00.440Z,94950.88
2023-05-28T11:36:28.746Z,94941.63
2023-05-28T11:39:05.186Z,94941.72
2023-05-28T11:41:34.291Z,94935.75
2023-05-28T11:44:02.537Z,94927.13
2023-05-28T11:46:30.862Z,94920.69
2023-05-28T11:48:59.170Z,94914.34
2023-05-28T11:51:27.425Z,94916.50
2023-05-28T11:53:56.826Z,94913.13
2023-05-28T11:56:28.971Z,94911.63
2023-05-28T11:58:57.197Z,94900.13
2023-05-28T12:01:25.454Z,94897.47
2023-05-28T12:03:53.731Z,94896.63
2023-05-28T12:06:32.562Z,94899.63
2023-05-28T12:09:08.750Z,94887.44
2023-05-28T12:11:38.407Z,94888.44
2023-05-28T12:14:13.688Z,94888.72
2023-05-28T12:16:47.777Z,94886.41
2023-05-28T12:19:17.204Z,94880.56
2023-05-28T12:21:46.796Z,94866.81
2023-05-28T12:24:16.443Z,94875.75
2023-05-28T12:26:46.333Z,94863.06
2023-05-28T12:29:14.613Z,94875.19
2023-05-28T12:31:42.895Z,94873.16
2023-05-28T12:34:11.429Z,94878.63
2023-05-28T12:36:39.627Z,94876.69
2023-05-28T12:39:08.048Z,94873.00
2023-05-28T12:41:36.437Z,94878.69
2023-05-28T12:44:06.039Z,94862.84
2023-05-28T12:46:34.260Z,94874.28
2023-05-28T12:49:02.612Z,94873.66
2023-05-28T12:51:32.330Z,94882.22
2023-05-28T12:54:01.273Z,94872.72
2023-05-28T12:56:29.563Z,94870.66
2023-05-28T12:58:57.736Z,94879.47
2023-05-28T13:01:27.776Z,94839.16
2023-05-28T13:03:56.222Z,94878.84
2023-05-28T13:06:24.462Z,94872.91
2023-05-28T13:08:52.677Z,94873.44
2023-05-28T13:11:21.448Z,94875.88
2023-05-28T13:13:49.692Z,94873.91
2023-05-28T13:16:19.211Z,94872.56
2023-05-28T13:18:48.923Z,94859.31
2023-05-28T13:21:17.189Z,94866.38
2023-05-28T13:23:45.482Z,94853.09
2023-05-28T13:26:13.818Z,94843.66
2023-05-28T13:28:42.105Z,94840.25
2023-05-28T13:31:10.440Z,94840.66
2023-05-28T13:33:38.681Z,94835.06
2023-05-28T13:36:08.751Z,94840.25
2023-05-28T13:38:36.972Z,94827.44
2023-05-28T13:41:05.379Z,94804.19
2023-05-28T13:43:33.658Z,94819.16
2023-05-28T13:46:01.895Z,94816.06
2023-05-28T13:48:30.085Z,94809.72
2023-05-28T13:50:58.339Z,94811.72
2023-05-28T13:53:28.521Z,94808.50
2023-05-28T13:55:56.945Z,94795.63
2023-05-28T13:58:26.127Z,94797.84
2023-05-28T14:00:54.415Z,94791.63
2023-05-28T14:03:22.756Z,94790.47
2023-05-28T14:05:51.116Z,94779.81
2023-05-28T14:08:19.425Z,94785.66
2023-05-28T14:10:49.094Z,94785.78
2023-05-28T14:13:17.327Z,94650.06
2023-05-28T14:15:45.593Z,94768.06
2023-05-28T14:18:13.908Z,94768.13
2023-05-28T14:20:42.155Z,94767.44
2023-05-28T14:23:10.498Z,94772.47
2023-05-28T14:25:38.843Z,94775.47
2023-05-28T14:28:12.250Z,94768.25
2023-05-28T14:30:41.244Z,94753.06
2023-05-28T14:33:09.897Z,94754.97
2023-05-28T14:35:38.493Z,94759.88
2023-05-28T14:38:06.746Z,94748.50
2023-05-28T14:40:35.094Z,94764.22
2023-05-28T14:43:03.401Z,94754.75
2023-05-28T14:45:33.118Z,94768.88
2023-05-28T14:48:02.336Z,94771.03
2023-05-28T14:50:30.702Z,94762.09
2023-05-28T14:52:58.962Z,94766.34
2023-05-28T14:55:27.312Z,94762.75
2023-05-28T14:57:55.721Z,94766.56
2023-05-28T15:00:24.200Z,94771.22
2023-05-28T15:02:54.093Z,94770.19
2023-05-28T15:05:22.676Z,94772.91
2023-05-28T15:07:50.933Z,94778.75
2023-05-28T15:10:19.294Z,94776.63
2023-05-28T15:12:47.664Z,94778.47
2023-05-28T15:15:16.428Z,94785.69
2023-05-28T15:17:44.750Z,94778.97
2023-05-28T15:20:14.532Z,94777.41
2023-05-28T15:22:42.863Z,94771.25
2023-05-28T15:25:11.938Z,94779.53
2023-05-28T15:27:40.782Z,94774.91
2023-05-28T15:30:10.097Z,94775.78
2023-05-28T15:32:40.656Z,94767.09
2023-05-28T15:35:10.305Z,94781.88
2023-05-28T15:37:40.564Z,94788.66
2023-05-28T15:40:10.749Z,94781.13
2023-05-28T15:42:42.887Z,94784.22
2023-05-28T15:45:11.994Z,94776.34
2023-05-28T15:47:40.277Z,94772.22
2023-05-28T15:50:09.464Z,94781.19
2023-05-28T15:52:39.170Z,94781.81
2023-05-28T15:55:08.371Z,94777.41
2023-05-28T15:57:37.026Z,94788.53
2023-05-28T16:00:06.068Z,94793.66
2023-05-28T16:02:36.252Z,94788.19
2023-05-28T16:05:04.909Z,94799.38
2023-05-28T16:07:33.495Z,94803.88
2023-05-28T16:10:03.848Z,94797.38
2023-05-28T16:12:34.084Z,94802.94
2023-05-28T16:15:06.400Z,94811.03
2023-05-28T16:17:39.683Z,94813.34
2023-05-28T16:20:10.970Z,94822.63
2023-05-28T16:22:40.741Z,94807.66
2023-05-28T16:25:12.566Z,94816.84
2023-05-28T16:27:40.962Z,94822.66
2023-05-28T16:30:10.301Z,94824.34
2023-05-28T16:32:39.118Z,94830.91
2023-05-28T16:35:08.302Z,94830.16
2023-05-28T16:37:37.330Z,94831.00
2023-05-28T16:40:08.880Z,94837.38
2023-05-28T16:42:40.570Z,94843.63
2023-05-28T16:45:10.354Z,94841.13
2023-05-28T16:47:40.700Z,94854.81
2023-05-28T16:50:09.857Z,94821.84
2023-05-28T16:52:39.500Z,94859.41
2023-05-28T16:55:08.145Z,94848.63
2023-05-28T16:57:36.944Z,94853.41
2023-05-28T17:00:08.216Z,94811.44
2023-05-28T17:02:36.663Z,94846.19
2023-05-28T17:05:05.898Z,94850.19
2023-05-28T17:07:34.209Z,94855.13
2023-05-28T17:10:02.441Z,94859.31
2023-05-28T17:12:30.732Z,94857.16
2023-05-28T17:14:59.109Z,94861.44
2023-05-28T17:17:28.804Z,94864.44
2023-05-28T17:19:57.072Z,94871.38
2023-05-28T17:22:25.451Z,94871.63
2023-05-28T17:24:53.787Z,94864.88
2023-05-28T17:27:22.277Z,94882.16
2023-05-28T17:29:50.765Z,94889.22
2023-05-28T17:32:19.198Z,94885.19
2023-05-28T17:34:49.977Z,94888.63
2023-05-28T17:37:19.084Z,94864.28
2023-05-28T17:39:47.596Z,94900.50
2023-05-28T17:42:15.943Z,94903.69
2023-05-28T17:44:44.320Z,94904.59
2023-05-28T17:47:12.718Z,94903.38
2023-05-28T17:49:41.493Z,94922.81
2023-05-28T17:52:11.205Z,94918.06
2023-05-28T17:54:39.421Z,94916.72
2023-05-28T17:57:07.769Z,94919.88
2023-05-28T17:59:36.048Z,94933.56
2023-05-28T18:02:04.543Z,94930.75
2023-05-28T18:04:32.898Z,94922.16
2023-05-28T18:07:01.189Z,94932.81
2023-05-28T18:09:30.910Z,94910.16
2023-05-28T18:11:59.232Z,94944.59
2023-05-28T18:14:31.467Z,94940.31
2023-05-28T18:17:00.252Z,94946.03
2023-05-28T18:19:29.108Z,94950.63
2023-05-28T18:21:57.486Z,94945.59
2023-05-28T18:24:25.888Z,94955.56
2023-05-28T18:26:55.585Z,94944.22
2023-05-28T18:29:23.975Z,94963.25
2023-05-28T18:31:52.479Z,94973.59
2023-05-28T18:34:20.952Z,94978.00
2023-05-28T18:36:49.241Z,94973.16
2023-05-28T18:39:17.689Z,94971.72
2023-05-28T18:42:03.461Z,94982.03
2023-05-28T18:44:33.136Z,94978.66
2023-05-28T18:47:01.543Z,94982.56
2023-05-28T18:49:31.034Z,94994.00
2023-05-28T18:51:59.342Z,94990.44
2023-05-28T18:54:27.653Z,95000.84
2023-05-28T18:56:56.277Z,94999.72
2023-05-28T18:59:24.671Z,94995.00
2023-05-28T19:01:54.332Z,94995.78
2023-05-28T19:04:22.638Z,94994.91
2023-05-28T19:06:50.946Z,94998.94
2023-05-28T19:09:19.220Z,95003.31
2023-05-28T19:11:47.483Z,94996.03
2023-05-28T19:14:15.817Z,94996.66
2023-05-28T19:16:44.213Z,95005.84
2023-05-28T19:19:14.059Z,95010.00
2023-05-28T19:21:42.321Z,95015.00
2023-05-28T19:24:10.633Z,95022.53
2023-05-28T19:26:39.078Z,95018.38
2023-05-28T19:29:07.314Z,95017.28
2023-05-28T19:31:40.822Z,95017.72
2023-05-28T19:34:09.324Z,95024.41
2023-05-28T19:36:39.022Z,95021.94
2023-05-28T19:39:07.651Z,95030.00
2023-05-28T19:41:38.467Z,95029.81
2023-05-28T19:44:08.193Z,95033.38
2023-05-28T19:46:36.720Z,95035.53
2023-05-28T19:49:05.042Z,95043.50
2023-05-28T19:51:33.430Z,95045.31
2023-05-28T19:54:03.155Z,95047.19
2023-05-28T19:56:31.404Z,95065.09
2023-05-28T19:58:59.663Z,95063.69
2023-05-28T20:01:28.067Z,95058.28
2023-05-28T20:03:56.334Z,95066.81
2023-05-28T20:06:24.622Z,95065.81
2023-05-28T20:08:52.933Z,95065.16
2023-05-28T20:11:22.997Z,95051.47
2023-05-28T20:13:51.255Z,95059.47
2023-05-28T20:16:21.723Z,95053.56
2023-05-28T20:18:50.676Z,95058.97
2023-05-28T20:21:18.952Z,95021.03
2023-05-28T20:23:47.271Z,95063.22
2023-05-28T20:26:15.666Z,95065.97
2023-05-28T20:28:45.405Z,95050.84
2023-05-28T20:31:13.725Z,95065.59
2023-05-28T20:33:42.030Z,95051.69
2023-05-28T20:36:14.150Z,95052.81
2023-05-28T20:38:46.819Z,95051.44
2023-05-28T20:41:16.017Z,95053.47
2023-05-28T20:43:46.160Z,95046.19
2023-05-28T20:46:14.501Z,95040.84
2023-05-28T20:48:42.766Z,95041.00
2023-05-28T20:51:11.023Z,95043.38
2023-05-28T20:53:39.363Z,95035.03
2023-05-28T20:56:07.938Z,95034.56
2023-05-28T20:58:39.118Z,95035.75
2023-05-28T21:01:10.497Z,95039.09
2023-05-28T21:03:38.850Z,95040.84
2023-05-28T21:06:07.341Z,95043.66
2023-05-28T21:08:36.911Z,95043.06
2023-05-28T21:11:05.431Z,95048.13
2023-05-28T21:13:33.837Z,95051.59
2023-05-28T21:16:02.079Z,95039.69
2023-05-28T21:18:31.915Z,95042.75
2023-05-28T21:21:00.507Z,95042.03
2023-05-28T21:23:28.912Z,95046.56
2023-05-28T21:25:57.158Z,95046.53
2023-05-28T21:28:25.408Z,95044.41
2023-05-28T21:30:54.727Z,95044.53
2023-05-28T21:33:23.337Z,95049.59
2023-05-28T21:35:53.276Z,95054.63
2023-05-28T21:38:21.834Z,95048.75
2023-05-28T21:40:50.180Z,95051.09
2023-05-28T21:43:18.473Z,95047.75
2023-05-28T21:45:46.989Z,95047.16
2023-05-28T21:48:15.743Z,95042.72
2023-05-28T21:50:44.501Z,95048.69
2023-05-28T21:53:14.820Z,95040.03
2023-05-28T21:55:43.138Z,95037.53
2023-05-28T21:58:11.409Z,95040.41
2023-05-28T22:00:39.737Z,95040.28
2023-05-28T22:03:08.168Z,95042.63
2023-05-28T22:05:36.474Z,95035.81
2023-05-28T22:08:04.888Z,95038.00
2023-05-28T22:10:34.648Z,95042.72
2023-05-28T22:13:03.197Z,95037.63
2023-05-28T22:15:31.562Z,95036.56
2023-05-28T22:17:59.933Z,95019.47
2023-05-28T22:20:41.570Z,95027.59
2023-05-28T22:23:11.995Z,95022.72
2023-05-28T22:25:41.907Z,95029.97
2023-05-28T22:28:10.485Z,95008.06
2023-05-28T22:30:38.862Z,95023.81
2023-05-28T22:33:07.710Z,95021.44
2023-05-28T22:35:36.288Z,95020.81
2023-05-28T22:38:04.559Z,95025.66
2023-05-28T22:40:33.816Z,95010.28
2023-05-28T22:43:03.675Z,95019.38
2023-05-28T22:45:32.009Z,95016.38
2023-05-28T22:48:00.279Z,95018.88
2023-05-28T22:50:28.707Z,95021.00
2023-05-28T22:52:57.002Z,95018.38
2023-05-28T22:55:28.277Z,95019.34
2023-05-28T22:57:56.625Z,95020.72
2023-05-28T23:00:26.351Z,95016.28
2023-05-28T23:02:54.728Z,95007.78
2023-05-28T23:05:23.514Z,95004.22
2023-05-28T23:07:52.146Z,95007.38
2023-05-28T23:10:20.840Z,95006.13
2023-05-28T23:12:49.074Z,94993.97
2023-05-28T23:15:19.135Z,94996.19
2023-05-28T23:17:51.500Z,94997.28
2023-05-28T23:20:19.943Z,94993.50
2023-05-28T23:22:48.310Z,94990.31
2023-05-28T23:25:16.579Z,94993.94
2023-05-28T23:27:44.952Z,95003.22
2023-05-28T23:30:13.575Z,94988.97
2023-05-28T23:32:42.279Z,94995.03
2023-05-28T23:35:12.266Z,94993.53
2023-05-28T23:37:41.089Z,94986.13
2023-05-28T23:40:12.179Z,94986.94
2023-05-28T23:42:40.612Z,94984.94
2023-05-28T23:45:10.245Z,94985.78
2023-05-28T23:47:39.087Z,94983.88
2023-05-28T23:50:09.591Z,94976.91
2023-05-28T23:52:39.241Z,94932.09
2023-05-28T23:55:08.235Z,94975.34
2023-05-28T23:57:36.503Z,94980.31
